Time;durP1;ratioP1;P1;durP2;ratioP2;P2;SDS_P1;SDS_P2;PMS_P1;PMS_P2;Temp;Humidity;BMP_temperature;BMP_pressure;BME280_temperature;BME280_humidity;BME280_pressure;Samples;Min_cycle;Max_cycle;Signal;HPM_P1;HPM_P2
2023/04/23 00:00:12;;;;;;;4.53;2.70;;;;;;;21.82;39.27;100797.84;5117620;27;20044;-73
2023/04/23 00:02:38;;;;;;;2.80;2.45;;;;;;;21.78;39.23;100791.31;5107916;27;20056;-73
2023/04/23 00:05:05;;;;;;;3.22;2.70;;;;;;;21.80;39.35;100807.00;5111388;27;20123;-73
2023/04/23 00:07:32;;;;;;;4.43;2.83;;;;;;;21.77;39.05;100797.63;5114920;27;20139;-72
2023/04/23 00:09:59;;;;;;;4.60;2.70;;;;;;;21.75;39.10;100790.88;5114418;27;20038;-73
2023/04/23 00:12:25;;;;;;;3.67;2.80;;;;;;;21.76;39.06;100788.03;5115585;27;20089;-72
2023/04/23 00:14:51;;;;;;;2.58;2.30;;;;;;;21.67;39.17;100791.81;5112471;27;20115;-73
2023/04/23 00:17:18;;;;;;;3.55;2.83;;;;;;;21.74;38.66;100795.34;5115873;27;20568;-73
2023/04/23 00:19:44;;;;;;;4.38;2.65;;;;;;;21.72;39.48;100794.69;5110544;27;20081;-73
2023/04/23 00:22:09;;;;;;;3.92;2.97;;;;;;;21.66;39.31;100787.53;5103428;28;20044;-74
2023/04/23 00:24:37;;;;;;;2.50;2.30;;;;;;;21.68;39.20;100796.09;5099432;28;20039;-73
2023/04/23 00:27:03;;;;;;;3.97;2.78;;;;;;;21.68;39.04;100796.09;5111996;27;20043;-72
2023/04/23 00:29:29;;;;;;;4.07;2.70;;;;;;;21.69;38.96;100795.09;5118977;27;20043;-72
2023/04/23 00:31:54;;;;;;;3.13;2.60;;;;;;;21.68;39.08;100796.94;5112531;27;20054;-73
2023/04/23 00:34:20;;;;;;;4.25;3.45;;;;;;;21.61;39.33;100796.06;5104824;28;20035;-73
2023/04/23 00:36:45;;;;;;;3.40;2.80;;;;;;;21.65;39.36;100791.19;5108084;27;20043;-72
2023/04/23 00:39:11;;;;;;;4.35;3.00;;;;;;;21.68;39.33;100788.16;5109106;27;20055;-73
2023/04/23 00:41:36;;;;;;;4.10;2.70;;;;;;;21.68;39.17;100780.22;5105188;27;20062;-73
2023/04/23 00:44:02;;;;;;;3.58;2.92;;;;;;;21.58;39.10;100771.78;5103554;27;20739;-73
2023/04/23 00:46:28;;;;;;;3.90;2.90;;;;;;;21.61;39.10;100785.47;5103278;28;20107;-72
2023/04/23 00:48:54;;;;;;;4.10;3.00;;;;;;;21.59;39.33;100784.84;5118976;27;20032;-73
2023/04/23 00:51:23;;;;;;;3.63;3.13;;;;;;;21.58;39.05;100785.03;5111176;27;20101;-74
2023/04/23 00:53:49;;;;;;;3.85;3.15;;;;;;;21.60;39.14;100778.53;5095773;28;20024;-73
2023/04/23 00:56:16;;;;;;;3.63;3.03;;;;;;;21.55;39.20;100773.00;5113462;27;20046;-73
2023/04/23 00:58:43;;;;;;;3.97;2.75;;;;;;;21.51;39.46;100781.50;5085705;28;20047;-73
2023/04/23 01:01:08;;;;;;;3.65;3.15;;;;;;;21.55;39.36;100783.59;5109446;28;20042;-72
2023/04/23 01:03:36;;;;;;;4.28;2.83;;;;;;;21.50;39.18;100774.56;5105904;27;20047;-73
2023/04/23 01:06:03;;;;;;;4.18;2.78;;;;;;;21.46;39.41;100775.97;5113800;27;20039;-72
2023/04/23 01:08:31;;;;;;;3.70;3.03;;;;;;;21.53;39.45;100775.00;5111057;27;20064;-74
2023/04/23 01:10:57;;;;;;;4.35;3.17;;;;;;;21.46;39.19;100771.50;5110902;27;20382;-74
2023/04/23 01:13:25;;;;;;;4.13;3.10;;;;;;;21.46;39.15;100773.31;5102252;27;20035;-74
2023/04/23 01:15:51;;;;;;;4.32;2.80;;;;;;;21.50;39.31;100780.69;5101209;28;20070;-74
2023/04/23 01:18:18;;;;;;;3.88;3.03;;;;;;;21.42;39.43;100778.19;5099219;28;20074;-73
2023/04/23 01:20:44;;;;;;;3.67;3.05;;;;;;;21.41;39.48;100785.31;5103700;27;20553;-73
2023/04/23 01:23:11;;;;;;;3.33;2.95;;;;;;;21.38;39.28;100779.59;5122481;27;20080;-73
2023/04/23 01:25:37;;;;;;;4.15;3.25;;;;;;;21.41;39.58;100787.97;5113638;27;20047;-73
2023/04/23 01:28:05;;;;;;;3.67;2.80;;;;;;;21.44;39.48;100778.00;5111280;27;20035;-73
2023/04/23 01:30:32;;;;;;;4.10;2.97;;;;;;;21.40;39.23;100782.84;5107194;28;20039;-73
2023/04/23 01:33:01;;;;;;;4.88;3.35;;;;;;;21.44;39.34;100784.09;5100948;27;20096;-73
2023/04/23 01:35:27;;;;;;;3.60;3.00;;;;;;;21.40;39.36;100778.38;5105890;28;20038;-73
2023/04/23 01:37:54;;;;;;;3.90;3.03;;;;;;;21.41;39.07;100780.00;5111937;27;20036;-73
2023/04/23 01:40:20;;;;;;;4.32;3.33;;;;;;;21.41;39.34;100785.31;5106857;28;20039;-74
2023/04/23 01:42:47;;;;;;;3.50;2.88;;;;;;;21.40;39.23;100783.69;5103148;28;20039;-73
2023/04/23 01:45:12;;;;;;;4.32;3.08;;;;;;;21.35;39.44;100786.06;5108385;27;20102;-73
2023/04/23 01:47:40;;;;;;;4.65;3.10;;;;;;;21.33;39.40;100782.78;5099748;27;20526;-74
2023/04/23 01:50:07;;;;;;;4.10;2.97;;;;;;;21.32;39.40;100785.63;5088953;28;20074;-73
2023/04/23 01:52:32;;;;;;;5.78;3.20;;;;;;;21.22;39.18;100766.56;5093114;28;20054;-73
2023/04/23 01:54:58;;;;;;;4.18;2.95;;;;;;;21.34;39.34;100792.38;5112933;27;20037;-73
2023/04/23 01:57:25;;;;;;;3.60;2.80;;;;;;;21.21;39.15;100779.00;5116234;27;20035;-73
2023/04/23 01:59:56;;;;;;;3.90;3.17;;;;;;;21.29;39.22;100786.00;5106940;27;20035;-73
2023/04/23 02:02:24;;;;;;;3.22;2.67;;;;;;;21.38;39.30;100780.41;5106932;28;20024;-73
2023/04/23 02:04:52;;;;;;;3.38;2.78;;;;;;;21.34;39.15;100779.13;5111965;27;20043;-73
2023/04/23 02:07:17;;;;;;;4.50;2.97;;;;;;;21.40;38.99;100775.72;5088083;28;20042;-73
2023/04/23 02:09:43;;;;;;;3.25;2.88;;;;;;;21.37;39.15;100777.94;5109757;28;20490;-73
2023/04/23 02:12:08;;;;;;;4.38;3.10;;;;;;;21.18;39.21;100762.63;5101992;28;20039;-73
2023/04/23 02:14:34;;;;;;;4.13;3.35;;;;;;;21.28;39.13;100771.13;5108333;27;20042;-73
2023/04/23 02:17:00;;;;;;;3.67;2.80;;;;;;;21.28;39.36;100771.13;5111533;27;20039;-73
2023/04/23 02:19:26;;;;;;;4.38;3.40;;;;;;;21.30;39.27;100763.81;5113943;28;21063;-74
2023/04/23 02:21:54;;;;;;;3.83;3.10;;;;;;;21.35;39.13;100762.22;5105724;28;20416;-74
2023/04/23 02:24:19;;;;;;;3.90;3.20;;;;;;;21.32;39.07;100767.91;5109718;28;20032;-73
2023/04/23 02:26:46;;;;;;;4.07;3.08;;;;;;;21.22;39.18;100770.03;5101006;27;20055;-73
2023/04/23 02:29:11;;;;;;;3.70;2.90;;;;;;;21.23;39.04;100765.56;5103601;28;20047;-73
2023/04/23 02:31:37;;;;;;;4.10;3.10;;;;;;;21.23;39.14;100763.72;5102427;28;20040;-73
2023/04/23 02:34:03;;;;;;;5.03;3.58;;;;;;;21.20;39.43;100760.66;5115324;28;20039;-73
2023/04/23 02:36:30;;;;;;;3.67;3.17;;;;;;;21.23;39.43;100761.09;5090994;28;20596;-73
2023/04/23 02:38:55;;;;;;;3.85;3.13;;;;;;;21.21;39.39;100759.63;5092465;28;20055;-73
2023/04/23 02:41:21;;;;;;;3.60;2.83;;;;;;;21.19;39.45;100756.38;5110580;28;20360;-73
2023/04/23 02:43:46;;;;;;;4.28;3.35;;;;;;;21.21;39.35;100754.34;5097829;28;20105;-73
2023/04/23 02:46:12;;;;;;;3.55;2.90;;;;;;;21.20;39.37;100756.16;5095495;28;20031;-72
2023/04/23 02:48:40;;;;;;;4.40;3.28;;;;;;;21.15;39.50;100758.53;5109380;28;20055;-73
2023/04/23 02:51:08;;;;;;;3.65;2.92;;;;;;;21.09;39.07;100743.44;5115862;28;20032;-73
2023/04/23 02:53:33;;;;;;;4.15;3.35;;;;;;;21.18;39.27;100746.75;5099586;28;20055;-74
2023/04/23 02:56:00;;;;;;;4.93;4.30;;;;;;;21.14;39.21;100748.97;5096269;28;20047;-73
2023/04/23 02:58:26;;;;;;;4.68;3.17;;;;;;;21.19;38.90;100746.59;5103552;28;20031;-74
2023/04/23 03:00:54;;;;;;;4.10;3.40;;;;;;;21.09;39.13;100749.53;5103614;28;20048;-74
2023/04/23 03:03:20;;;;;;;4.45;3.28;;;;;;;21.13;39.44;100752.63;5101271;28;20039;-73
2023/04/23 03:05:46;;;;;;;3.95;3.15;;;;;;;21.16;38.98;100749.59;5096597;28;20042;-72
2023/04/23 03:08:12;;;;;;;4.25;3.63;;;;;;;21.11;39.35;100749.34;5110096;28;20043;-73
2023/04/23 03:10:37;;;;;;;4.82;3.90;;;;;;;21.07;39.38;100748.09;5112038;28;20093;-73
2023/04/23 03:13:03;;;;;;;5.10;3.17;;;;;;;21.08;39.31;100753.19;5112597;28;20040;-73
2023/04/23 03:15:29;;;;;;;5.80;3.70;;;;;;;21.16;38.94;100746.13;5091701;28;20032;-73
2023/04/23 03:17:55;;;;;;;3.55;3.08;;;;;;;21.14;39.11;100746.31;5124352;27;20047;-74
2023/04/23 03:20:21;;;;;;;4.55;3.30;;;;;;;21.07;39.11;100746.28;5113999;28;20468;-73
2023/04/23 03:22:46;;;;;;;5.50;3.88;;;;;;;21.11;39.14;100750.16;5104139;28;20031;-73
2023/04/23 03:25:13;;;;;;;5.00;3.60;;;;;;;21.04;39.25;100732.59;5099681;27;20040;-73
2023/04/23 03:27:42;;;;;;;4.47;3.65;;;;;;;21.03;39.36;100738.91;5103993;28;20031;-72
2023/04/23 03:30:09;;;;;;;6.00;4.22;;;;;;;21.05;38.96;100740.34;5105648;27;20031;-73
2023/04/23 03:32:35;;;;;;;4.63;3.58;;;;;;;21.00;39.23;100724.19;5094750;28;20061;-73
2023/04/23 03:35:00;;;;;;;5.40;3.50;;;;;;;21.02;39.29;100734.63;5113387;27;20038;-74
2023/04/23 03:37:26;;;;;;;4.75;3.72;;;;;;;21.01;39.13;100731.16;5107113;27;20036;-74
2023/04/23 03:39:52;;;;;;;4.93;3.42;;;;;;;21.04;38.99;100724.66;5113606;27;20035;-73
2023/04/23 03:42:18;;;;;;;5.68;3.58;;;;;;;20.97;39.14;100719.28;5111312;27;20038;-73
2023/04/23 03:44:43;;;;;;;4.03;3.28;;;;;;;21.03;38.96;100723.03;5106880;27;20048;-73
2023/04/23 03:47:09;;;;;;;4.35;3.20;;;;;;;21.07;38.88;100726.91;5091746;27;20070;-73
2023/04/23 03:49:35;;;;;;;4.30;3.50;;;;;;;21.04;38.98;100722.00;5089915;27;20730;-73
2023/04/23 03:52:01;;;;;;;4.43;3.40;;;;;;;21.03;39.25;100712.44;5103544;28;20061;-73
2023/04/23 03:54:29;;;;;;;4.75;3.50;;;;;;;21.01;39.18;100709.16;5097726;27;20066;-73
2023/04/23 03:57:13;;;;;;;4.43;3.45;;;;;;;20.99;39.22;100711.97;5094501;28;20481;-73
2023/04/23 03:59:58;;;;;;;4.28;3.42;;;;;;;20.99;39.06;100706.66;5094823;27;20039;-73
2023/04/23 04:02:24;;;;;;;4.13;3.50;;;;;;;20.96;39.28;100706.25;5098631;28;20702;-73
2023/04/23 04:04:53;;;;;;;4.15;2.95;;;;;;;20.97;39.25;100708.69;5101331;27;20039;-73
2023/04/23 04:07:19;;;;;;;4.50;3.38;;;;;;;20.90;39.15;100709.66;5097476;28;20044;-73
2023/04/23 04:09:47;;;;;;;3.60;3.00;;;;;;;20.96;39.20;100701.75;5092660;28;20055;-73
2023/04/23 04:12:14;;;;;;;3.60;3.03;;;;;;;20.93;39.01;100693.38;5109869;27;20051;-73
2023/04/23 04:14:42;;;;;;;3.92;3.00;;;;;;;20.93;39.25;100696.03;5093011;28;20038;-73
2023/04/23 04:17:08;;;;;;;3.97;3.33;;;;;;;20.92;39.06;100697.03;5119900;27;20036;-73
2023/04/23 04:19:34;;;;;;;4.07;3.38;;;;;;;20.94;38.93;100697.66;5112673;27;20110;-73
2023/04/23 04:22:01;;;;;;;4.10;3.28;;;;;;;20.92;39.17;100700.50;5109769;27;20341;-73
2023/04/23 04:24:27;;;;;;;4.45;3.45;;;;;;;20.93;39.05;100701.34;5113109;28;20044;-73
2023/04/23 04:26:53;;;;;;;4.13;3.60;;;;;;;20.92;39.01;100699.69;5112210;27;20036;-74
2023/04/23 04:29:20;;;;;;;4.65;3.67;;;;;;;20.90;39.12;100697.25;5115455;27;20041;-72
2023/04/23 04:31:46;;;;;;;4.68;3.30;;;;;;;20.84;39.13;100695.34;5117273;27;20036;-73
2023/04/23 04:34:13;;;;;;;3.80;3.00;;;;;;;20.93;39.07;100702.16;5111091;27;20035;-73
2023/04/23 04:36:40;;;;;;;4.65;3.25;;;;;;;20.85;39.22;100696.19;5117808;27;20155;-73
2023/04/23 04:39:06;;;;;;;3.85;3.08;;;;;;;20.83;39.08;100682.31;5116346;27;20580;-73
2023/04/23 04:41:32;;;;;;;5.28;3.00;;;;;;;20.84;39.05;100695.34;5105247;27;20036;-73
2023/04/23 04:43:58;;;;;;;5.05;3.63;;;;;;;20.81;39.22;100695.72;5116828;27;20042;-73
2023/04/23 04:46:25;;;;;;;4.55;3.47;;;;;;;20.84;39.05;100687.41;5104300;27;20039;-73
2023/04/23 04:48:50;;;;;;;4.97;3.40;;;;;;;20.90;38.92;100701.72;5109578;27;20059;-73
2023/04/23 04:51:16;;;;;;;3.97;3.25;;;;;;;20.85;38.94;100691.69;5111846;27;21322;-73
2023/04/23 04:53:42;;;;;;;4.07;3.33;;;;;;;20.89;38.83;100689.50;5114636;27;20043;-73
2023/04/23 04:56:07;;;;;;;5.03;3.40;;;;;;;20.78;39.14;100709.31;5109748;27;20089;-73
2023/04/23 04:58:33;;;;;;;4.70;3.75;;;;;;;20.86;38.86;100705.75;5109148;27;20054;-73
2023/04/23 05:01:00;;;;;;;4.05;3.17;;;;;;;20.84;38.91;100703.28;5120623;27;20046;-73
2023/04/23 05:03:26;;;;;;;3.88;3.20;;;;;;;20.83;38.86;100696.38;5109543;27;20052;-73
2023/04/23 05:05:57;;;;;;;4.53;3.33;;;;;;;20.79;38.90;100705.66;5118604;27;20046;-73
2023/04/23 05:08:22;;;;;;;3.60;3.05;;;;;;;20.81;39.12;100706.28;5108096;27;20055;-73
2023/04/23 05:10:52;;;;;;;5.18;3.47;;;;;;;20.78;38.99;100693.44;5108823;27;20059;-73
2023/04/23 05:13:18;;;;;;;3.83;3.33;;;;;;;20.77;38.99;100705.88;5112343;27;20054;-73
2023/04/23 05:15:45;;;;;;;4.25;3.03;;;;;;;20.76;39.06;100698.13;5107600;27;20035;-73
2023/04/23 05:18:10;;;;;;;4.45;3.53;;;;;;;20.77;39.11;100676.75;5114470;28;20480;-73
2023/04/23 05:20:37;;;;;;;4.40;3.58;;;;;;;20.82;38.86;100692.06;5098737;27;20040;-73
2023/04/23 05:23:02;;;;;;;4.20;3.70;;;;;;;20.81;39.01;100693.06;5104927;27;20042;-73
2023/04/23 05:25:29;;;;;;;4.38;3.55;;;;;;;20.84;39.08;100691.91;5114912;27;20032;-73
2023/04/23 05:27:55;;;;;;;5.00;3.95;;;;;;;20.77;38.99;100697.09;5114347;28;20051;-73
2023/04/23 05:30:21;;;;;;;4.53;3.83;;;;;;;20.80;38.67;100694.88;5112080;27;20089;-73
2023/04/23 05:32:46;;;;;;;4.65;3.83;;;;;;;20.84;39.01;100691.91;5116533;27;20769;-73
2023/04/23 05:35:12;;;;;;;6.68;4.30;;;;;;;20.77;39.02;100697.09;5111844;27;20050;-73
2023/04/23 05:37:37;;;;;;;4.88;3.75;;;;;;;20.79;39.03;100695.91;5098849;28;20568;-73
2023/04/23 05:40:05;;;;;;;6.57;4.50;;;;;;;20.81;39.03;100687.78;5106811;28;20035;-73
2023/04/23 05:42:31;;;;;;;6.18;4.40;;;;;;;20.78;38.94;100686.31;5113136;27;20039;-73
2023/04/23 05:44:56;;;;;;;5.40;4.22;;;;;;;20.75;39.02;100685.91;5102554;27;20051;-74
2023/04/23 05:47:22;;;;;;;5.78;4.22;;;;;;;20.72;39.13;100680.97;5115385;27;20063;-73
2023/04/23 05:49:47;;;;;;;5.55;4.32;;;;;;;20.72;38.99;100679.16;5102857;27;20034;-73
2023/04/23 05:52:13;;;;;;;6.68;5.03;;;;;;;20.71;39.17;100674.06;5106708;27;20085;-73
2023/04/23 05:54:38;;;;;;;5.53;4.38;;;;;;;20.74;39.01;100669.19;5113624;27;20051;-73
2023/04/23 05:57:04;;;;;;;5.25;4.47;;;;;;;20.73;39.24;100670.22;5108417;28;20081;-73
2023/04/23 05:59:30;;;;;;;5.57;4.43;;;;;;;20.74;39.01;100669.19;5109418;28;20133;-73
2023/04/23 06:01:57;;;;;;;6.18;5.05;;;;;;;20.77;39.10;100668.00;5109013;27;20054;-73
2023/04/23 06:04:22;;;;;;;5.93;5.13;;;;;;;20.76;38.99;100664.53;5113209;28;20055;-73
2023/04/23 06:06:48;;;;;;;6.32;4.68;;;;;;;20.78;38.93;100665.16;5115644;28;20031;-73
2023/04/23 06:09:13;;;;;;;7.47;5.10;;;;;;;20.85;38.80;100664.41;5113250;28;20051;-73
2023/04/23 06:11:38;;;;;;;6.18;4.50;;;;;;;20.79;39.02;100669.44;5104983;27;20072;-73
2023/04/23 06:14:04;;;;;;;5.32;4.53;;;;;;;20.74;39.08;100668.38;5106381;28;20040;-73
2023/04/23 06:16:30;;;;;;;7.32;5.65;;;;;;;20.65;39.14;100661.59;5111215;27;20039;-73
2023/04/23 06:18:55;;;;;;;6.45;5.07;;;;;;;20.73;39.20;100666.75;5111006;28;20035;-73
2023/04/23 06:21:22;;;;;;;7.38;5.28;;;;;;;20.73;38.91;100669.38;5108596;28;20042;-74
2023/04/23 06:23:48;;;;;;;7.65;5.55;;;;;;;20.76;39.11;100663.72;5107610;28;20062;-73
2023/04/23 06:26:14;;;;;;;7.22;5.28;;;;;;;20.76;38.90;100663.72;5109330;28;20543;-73
2023/04/23 06:28:42;;;;;;;6.97;5.70;;;;;;;20.74;39.05;100665.72;5101467;28;20099;-73
2023/04/23 06:31:27;;;;;;;6.68;5.28;;;;;;;20.71;39.01;100656.34;5090573;28;20067;-73
2023/04/23 06:33:53;;;;;;;6.90;5.43;;;;;;;20.75;39.15;100656.78;5111697;28;20032;-73
2023/04/23 06:36:18;;;;;;;7.15;5.63;;;;;;;20.80;38.99;100652.56;5106569;28;20516;-73
2023/04/23 06:38:44;;;;;;;6.70;5.43;;;;;;;20.76;39.30;100650.47;5109603;28;20069;-73
2023/04/23 06:41:10;;;;;;;7.53;5.85;;;;;;;20.75;39.06;100643.56;5109677;28;20043;-73
2023/04/23 06:43:35;;;;;;;6.13;4.82;;;;;;;20.78;38.95;100641.34;5109683;28;20039;-73
2023/04/23 06:46:33;;;;;;;6.97;4.93;;;;;;;20.81;39.02;100635.66;5083537;28;20051;-72
2023/04/23 06:48:59;;;;;;;6.72;5.43;;;;;;;20.84;38.91;100642.44;5111997;28;20059;-72
2023/04/23 06:51:25;;;;;;;6.45;4.97;;;;;;;20.79;38.97;100642.97;5107860;28;20081;-73
2023/04/23 06:53:51;;;;;;;6.55;5.25;;;;;;;20.80;39.07;100649.09;5109457;28;20096;-73
2023/04/23 06:56:16;;;;;;;6.82;5.07;;;;;;;20.86;38.91;100639.59;5105437;27;20837;-73
2023/04/23 06:58:42;;;;;;;7.15;5.22;;;;;;;20.93;38.83;100641.25;5108079;27;20130;-73
2023/04/23 07:01:16;;;;;;;6.45;4.88;;;;;;;21.11;38.46;100641.63;5098049;27;20039;-71
2023/04/23 07:03:43;;;;;;;6.75;5.10;;;;;;;21.18;38.51;100635.53;5111631;27;20042;-72
2023/04/23 07:06:09;;;;;;;6.35;5.00;;;;;;;21.17;38.34;100632.06;5111972;27;20119;-71
2023/04/23 07:08:35;;;;;;;5.05;4.38;;;;;;;21.22;38.48;100631.50;5110738;27;20146;-73
2023/04/23 07:11:01;;;;;;;6.70;4.82;;;;;;;21.22;38.62;100636.81;5111465;27;20781;-73
2023/04/23 07:13:26;;;;;;;6.13;4.55;;;;;;;21.17;38.53;100626.78;5109624;27;20043;-73
2023/04/23 07:15:52;;;;;;;6.45;4.63;;;;;;;21.26;38.48;100617.72;5112618;27;20049;-72
2023/04/23 07:18:17;;;;;;;6.57;5.00;;;;;;;21.29;38.44;100608.56;5110924;27;20036;-72
2023/04/23 07:20:43;;;;;;;5.28;4.60;;;;;;;21.42;38.21;100616.59;5105235;27;20085;-72
2023/04/23 07:23:09;;;;;;;5.75;4.50;;;;;;;21.66;38.03;100618.75;5112438;27;20035;-72
2023/04/23 07:25:34;;;;;;;5.30;4.25;;;;;;;21.69;37.77;100615.69;5111225;27;20043;-72
2023/04/23 07:28:00;;;;;;;5.53;4.72;;;;;;;21.72;37.64;100614.47;5106956;28;20043;-72
2023/04/23 07:30:26;;;;;;;5.30;4.63;;;;;;;21.57;38.27;100598.75;5094439;27;20035;-71
2023/04/23 07:32:52;;;;;;;5.68;4.63;;;;;;;21.70;38.00;100612.03;5111783;27;20097;-69
2023/04/23 07:35:18;;;;;;;5.70;4.80;;;;;;;21.65;38.40;100616.28;5109822;28;20035;-71
2023/04/23 07:37:44;;;;;;;5.00;4.28;;;;;;;21.62;38.13;100611.41;5112282;27;20047;-71
2023/04/23 07:40:09;;;;;;;5.93;4.80;;;;;;;21.66;38.10;100616.09;5104720;28;20047;-71
2023/04/23 07:42:35;;;;;;;5.20;4.15;;;;;;;21.65;38.16;100613.66;5107611;27;20135;-71
2023/04/23 07:45:00;;;;;;;6.50;4.55;;;;;;;21.60;38.32;100608.13;5114176;27;20049;-72
2023/04/23 07:47:26;;;;;;;5.72;4.47;;;;;;;21.54;38.69;100615.00;5114849;28;20109;-72
2023/04/23 07:49:51;;;;;;;5.00;4.47;;;;;;;21.67;38.33;100616.91;5112638;27;20076;-72
2023/04/23 07:52:17;;;;;;;5.45;4.30;;;;;;;21.67;38.36;100607.13;5109821;27;20040;-71
2023/04/23 07:54:43;;;;;;;10.98;7.03;;;;;;;21.55;39.99;100599.97;5102104;27;20035;-71
2023/04/23 07:57:10;;;;;;;7.80;5.03;;;;;;;21.55;39.64;100605.25;5091946;28;20031;-77
2023/04/23 07:59:37;;;;;;;6.70;4.97;;;;;;;21.58;39.35;100600.38;5108688;28;20070;-76
2023/04/23 08:02:03;;;;;;;6.50;5.43;;;;;;;21.62;39.10;100598.97;5109033;27;20034;-77
2023/04/23 08:04:29;;;;;;;5.65;4.78;;;;;;;21.69;38.81;100599.81;5111262;28;20048;-76
2023/04/23 08:06:54;;;;;;;5.90;4.88;;;;;;;21.57;38.91;100585.50;5126792;27;20081;-76
2023/04/23 08:09:20;;;;;;;5.47;4.60;;;;;;;21.58;38.95;100584.47;5096665;28;20113;-77
2023/04/23 08:11:47;;;;;;;6.20;4.70;;;;;;;21.69;39.19;100591.03;5111493;28;20036;-73
2023/04/23 08:14:12;;;;;;;5.25;4.10;;;;;;;21.72;38.54;100582.69;5111894;27;20142;-76
2023/04/23 08:16:38;;;;;;;7.68;4.65;;;;;;;21.66;38.90;100583.47;5112463;27;20114;-78
2023/04/23 08:19:04;;;;;;;7.22;4.10;;;;;;;21.69;38.58;100583.91;5111717;28;20035;-80
2023/04/23 08:21:33;;;;;;;4.50;3.75;;;;;;;21.67;39.08;100582.47;5112500;27;20330;-80
2023/04/23 08:23:59;;;;;;;6.07;5.10;;;;;;;21.78;38.98;100584.56;5128438;27;20121;-78
2023/04/23 08:26:24;;;;;;;5.53;4.25;;;;;;;21.79;38.57;100580.06;5113885;27;20615;-78
2023/04/23 08:28:50;;;;;;;5.90;4.68;;;;;;;21.80;38.74;100577.22;5110706;27;20039;-78
2023/04/23 08:31:16;;;;;;;5.25;4.15;;;;;;;21.71;38.91;100565.16;5109611;27;20170;-78
2023/04/23 08:33:42;;;;;;;5.38;3.95;;;;;;;21.80;38.55;100571.94;5113855;28;20032;-78
2023/04/23 08:36:08;;;;;;;6.45;4.30;;;;;;;21.83;38.94;100568.06;5110735;27;20027;-78
2023/04/23 08:38:33;;;;;;;5.28;4.38;;;;;;;21.79;38.92;100569.47;5105349;27;20370;-78
2023/04/23 08:41:01;;;;;;;4.80;4.18;;;;;;;21.84;38.71;100570.50;5111149;28;20031;-78
2023/04/23 08:43:55;;;;;;;5.07;4.15;;;;;;;21.86;38.40;100565.81;5108311;28;20567;-79
2023/04/23 08:46:22;;;;;;;5.18;4.07;;;;;;;21.85;38.89;100576.63;5106190;28;20032;-78
2023/04/23 08:48:51;;;;;;;5.18;4.15;;;;;;;21.81;38.54;100573.56;5105516;27;20050;-78
2023/04/23 08:51:20;;;;;;;4.53;4.03;;;;;;;21.86;38.53;100575.59;5105058;27;20050;-78
2023/04/23 08:53:51;;;;;;;5.30;4.20;;;;;;;21.82;38.90;100569.06;5104869;27;20043;-78
2023/04/23 08:56:16;;;;;;;4.72;3.95;;;;;;;21.85;38.79;100569.50;5105951;28;20035;-78
2023/04/23 08:58:42;;;;;;;4.65;3.90;;;;;;;21.79;38.59;100558.88;5107902;27;20045;-79
2023/04/23 09:01:08;;;;;;;4.95;4.05;;;;;;;21.87;38.45;100563.97;5091641;28;20041;-78
2023/04/23 09:03:35;;;;;;;4.40;3.63;;;;;;;21.84;38.84;100569.69;5107551;28;20536;-78
2023/04/23 09:06:00;;;;;;;5.40;4.13;;;;;;;21.71;38.81;100557.19;5106718;27;20040;-75
2023/04/23 09:08:29;;;;;;;4.85;3.78;;;;;;;21.71;38.59;100550.06;5091977;28;20642;-79
2023/04/23 09:11:00;;;;;;;4.40;3.60;;;;;;;21.82;38.73;100575.19;5105319;27;20028;-79
2023/04/23 09:13:25;;;;;;;5.93;4.10;;;;;;;21.84;38.86;100578.47;5106058;27;20027;-79
2023/04/23 09:15:54;;;;;;;4.30;3.72;;;;;;;21.77;38.65;100574.16;5110085;27;20123;-76
2023/04/23 09:18:20;;;;;;;4.57;4.00;;;;;;;21.81;38.65;100586.00;5107631;28;20035;-78
2023/04/23 09:20:46;;;;;;;5.53;4.15;;;;;;;21.79;39.21;100580.91;5105321;28;20039;-75
2023/04/23 09:23:15;;;;;;;6.18;3.90;;;;;;;21.85;38.57;100569.50;5106787;28;20141;-75
2023/04/23 09:25:41;;;;;;;4.85;3.78;;;;;;;21.77;38.79;100564.38;5109286;27;20036;-75
2023/04/23 09:28:09;;;;;;;4.43;3.80;;;;;;;21.87;38.58;100570.09;5099541;28;20096;-76
2023/04/23 09:30:53;;;;;;;6.38;4.28;;;;;;;21.83;38.98;100581.31;5108375;27;20069;-75
2023/04/23 09:33:19;;;;;;;4.55;4.00;;;;;;;21.81;38.97;100578.84;5118223;27;20036;-75
2023/04/23 09:35:46;;;;;;;4.95;3.40;;;;;;;21.82;39.07;100577.03;5111888;28;20040;-75
2023/04/23 09:38:13;;;;;;;4.63;3.70;;;;;;;21.72;39.10;100569.44;5101168;27;20071;-75
2023/04/23 09:40:38;;;;;;;4.35;3.25;;;;;;;21.74;39.25;100572.72;5105224;28;20049;-75
2023/04/23 09:43:06;;;;;;;5.07;3.58;;;;;;;21.78;39.04;100581.91;5106216;27;20039;-75
2023/04/23 09:45:33;;;;;;;4.93;3.78;;;;;;;21.79;39.31;100575.59;5091743;28;20107;-75
2023/04/23 09:47:58;;;;;;;5.43;3.60;;;;;;;21.79;38.89;100577.44;5107176;27;20505;-75
2023/04/23 09:50:35;;;;;;;5.45;3.97;;;;;;;21.71;39.24;100555.38;5112400;27;20048;-75
2023/04/23 09:53:02;;;;;;;5.47;3.72;;;;;;;21.79;39.13;100561.53;5112504;28;20036;-75
2023/04/23 09:55:38;;;;;;;4.47;3.72;;;;;;;21.80;38.91;100549.91;5105351;28;20603;-75
2023/04/23 09:58:05;;;;;;;4.25;3.63;;;;;;;21.81;39.10;100548.88;5107366;27;20063;-75
2023/04/23 10:00:33;;;;;;;4.25;3.60;;;;;;;21.76;38.93;100552.13;5103773;28;20106;-75
2023/04/23 10:03:00;;;;;;;4.47;3.45;;;;;;;21.80;39.01;100550.72;5108616;27;20389;-75
2023/04/23 10:05:26;;;;;;;4.10;3.67;;;;;;;21.68;39.13;100552.31;5120938;27;20043;-75
2023/04/23 10:07:51;;;;;;;3.65;3.35;;;;;;;21.73;39.38;100551.72;5112318;28;20065;-76
2023/04/23 10:10:18;;;;;;;4.65;4.07;;;;;;;21.67;39.21;100542.72;5079943;28;20040;-75
2023/04/23 10:12:45;;;;;;;4.43;4.03;;;;;;;21.72;39.13;100545.59;5103913;28;20377;-75
2023/04/23 10:15:12;;;;;;;4.68;3.50;;;;;;;21.67;39.30;100551.47;5105554;28;20031;-75
2023/04/23 10:17:39;;;;;;;6.40;3.70;;;;;;;21.70;39.04;100545.78;5114697;28;20213;-75
2023/04/23 10:20:07;;;;;;;4.28;3.72;;;;;;;21.71;39.39;100544.75;5110015;28;20417;-78
2023/04/23 10:22:33;;;;;;;4.20;3.28;;;;;;;21.67;39.48;100550.66;5107176;28;20086;-79
2023/04/23 10:25:07;;;;;;;5.10;3.47;;;;;;;21.68;39.37;100547.81;5108084;28;20027;-78
2023/04/23 10:27:38;;;;;;;4.50;3.40;;;;;;;21.64;39.35;100543.13;5107642;27;20185;-78
2023/04/23 10:30:05;;;;;;;4.95;3.72;;;;;;;21.67;39.38;100551.47;5106995;28;20074;-78
2023/04/23 10:32:32;;;;;;;4.78;3.42;;;;;;;21.65;39.48;100540.25;5106734;28;20044;-78
2023/04/23 10:34:58;;;;;;;4.35;3.33;;;;;;;21.66;39.20;100541.09;5108652;28;20039;-78
2023/04/23 10:37:24;;;;;;;4.15;3.15;;;;;;;21.65;39.39;100542.09;5109114;28;20058;-77
2023/04/23 10:39:57;;;;;;;4.40;3.47;;;;;;;21.68;39.06;100541.69;5109045;28;20039;-78
2023/04/23 10:42:24;;;;;;;4.70;3.25;;;;;;;21.60;39.22;100523.34;5106772;28;20047;-78
2023/04/23 10:44:49;;;;;;;4.10;3.47;;;;;;;21.66;39.34;100536.59;5104003;28;20031;-79
2023/04/23 10:47:16;;;;;;;3.65;3.10;;;;;;;21.63;39.16;100541.50;5094472;28;20811;-78
2023/04/23 10:49:42;;;;;;;4.13;3.33;;;;;;;21.67;39.29;100532.13;5102320;28;20177;-78
2023/04/23 10:52:13;;;;;;;4.10;3.20;;;;;;;21.68;39.10;100528.44;5106131;28;20485;-78
2023/04/23 10:54:43;;;;;;;3.72;3.13;;;;;;;21.63;38.95;100523.75;5109247;28;20106;-78
2023/04/23 10:57:10;;;;;;;3.80;3.33;;;;;;;21.66;39.38;100525.19;5103440;28;20500;-78
2023/04/23 10:59:50;;;;;;;3.65;3.35;;;;;;;21.61;39.26;100523.13;5110290;28;20071;-72
2023/04/23 11:02:15;;;;;;;;;;;;;;;21.55;39.55;100523.94;5107122;28;20047;-74
2023/04/23 11:04:44;;;;;;;4.80;3.28;;;;;;;21.61;39.29;100514.38;5108735;28;19924;-74
2023/04/23 11:07:11;;;;;;;4.82;3.40;;;;;;;21.55;39.22;100513.34;5108213;28;20099;-79
2023/04/23 11:09:47;;;;;;;4.57;2.92;;;;;;;21.61;39.48;100514.38;5109274;28;20043;-77
2023/04/23 11:12:30;;;;;;;4.75;3.30;;;;;;;21.57;39.35;100499.91;5108160;28;20044;-73
2023/04/23 11:14:58;;;;;;;4.30;2.97;;;;;;;21.65;39.33;100519.06;5105702;28;20040;-73
2023/04/23 11:17:32;;;;;;;3.85;3.00;;;;;;;21.62;39.68;100513.34;5106516;28;20056;-73
2023/04/23 11:20:10;;;;;;;4.00;2.90;;;;;;;21.60;39.99;100507.44;5105695;28;20175;-77
2023/04/23 11:22:44;;;;;;;4.60;2.70;;;;;;;21.71;39.46;100514.78;5106748;28;20048;-77